createdAt,value
2024-03-27T00:00:30.185Z,5.00
2024-03-27T00:02:57.577Z,4.60
2024-03-27T00:05:25.055Z,4.20
2024-03-27T00:07:52.435Z,4.40
2024-03-27T00:10:19.859Z,5.60
2024-03-27T00:12:47.806Z,10.30
2024-03-27T00:15:16.601Z,7.00
2024-03-27T00:17:44.359Z,5.60
2024-03-27T00:20:11.985Z,7.70
2024-03-27T00:22:39.366Z,10.80
2024-03-27T00:25:07.366Z,12.30
2024-03-27T00:27:34.717Z,12.00
2024-03-27T00:30:02.066Z,14.00
2024-03-27T00:32:29.404Z,15.70
2024-03-27T00:34:56.805Z,14.80
2024-03-27T00:37:24.083Z,12.70
2024-03-27T00:39:51.399Z,12.00
2024-03-27T00:42:19.063Z,10.10
2024-03-27T00:44:46.974Z,8.20
2024-03-27T00:47:14.309Z,10.30
2024-03-27T00:49:41.890Z,8.70
2024-03-27T00:52:09.235Z,8.50
2024-03-27T00:54:36.573Z,7.70
2024-03-27T00:57:04.713Z,8.30
2024-03-27T00:59:35.111Z,8.70
2024-03-27T01:02:02.446Z,8.00
2024-03-27T01:04:29.763Z,9.30
2024-03-27T01:06:57.023Z,9.50
2024-03-27T01:09:24.325Z,10.30
2024-03-27T01:11:51.643Z,8.20
2024-03-27T01:14:18.905Z,12.50
2024-03-27T01:16:46.263Z,12.20
2024-03-27T01:19:13.550Z,12.60
2024-03-27T01:21:40.859Z,12.30
2024-03-27T01:24:08.296Z,11.70
2024-03-27T01:26:35.574Z,15.40
2024-03-27T01:29:02.954Z,16.00
2024-03-27T01:31:30.334Z,11.00
2024-03-27T01:33:57.601Z,14.40
2024-03-27T01:36:24.939Z,13.00
2024-03-27T01:38:52.247Z,13.20
2024-03-27T01:41:19.588Z,13.20
2024-03-27T01:43:46.899Z,13.40
2024-03-27T01:46:15.176Z,11.40
2024-03-27T01:48:42.494Z,12.00
2024-03-27T01:51:09.756Z,15.90
2024-03-27T01:53:37.122Z,11.60
2024-03-27T01:56:04.730Z,13.40
2024-03-27T01:58:32.122Z,12.60
2024-03-27T02:00:59.424Z,12.00
2024-03-27T02:03:26.866Z,11.90
2024-03-27T02:05:54.168Z,9.50
2024-03-27T02:08:21.536Z,11.50
2024-03-27T02:10:48.819Z,10.70
2024-03-27T02:13:16.154Z,12.80
2024-03-27T02:15:43.438Z,13.00
2024-03-27T02:18:10.724Z,12.30
2024-03-27T02:20:38.906Z,12.30
2024-03-27T02:23:09.918Z,12.60
2024-03-27T02:25:59.096Z,9.90
2024-03-27T02:28:26.437Z,10.60
2024-03-27T02:30:54.634Z,13.70
2024-03-27T02:33:22.012Z,11.80
2024-03-27T02:35:49.353Z,10.10
2024-03-27T02:38:16.687Z,11.20
2024-03-27T02:40:43.966Z,10.50
2024-03-27T02:43:11.294Z,10.20
2024-03-27T02:45:38.560Z,12.40
2024-03-27T02:48:06.768Z,8.90
2024-03-27T02:50:34.096Z,10.60
2024-03-27T02:53:01.374Z,8.00
2024-03-27T02:55:28.690Z,9.80
2024-03-27T02:57:56.002Z,9.90
2024-03-27T03:00:23.318Z,9.10
2024-03-27T03:02:50.626Z,11.00
2024-03-27T03:05:17.962Z,9.00
2024-03-27T03:07:46.633Z,8.20
2024-03-27T03:10:14.294Z,9.50
2024-03-27T03:12:41.598Z,8.10
2024-03-27T03:15:09.020Z,10.40
2024-03-27T03:17:37.014Z,9.70
2024-03-27T03:20:08.119Z,8.80
2024-03-27T03:22:35.520Z,9.10
2024-03-27T03:25:02.877Z,9.70
2024-03-27T03:27:30.343Z,9.50
2024-03-27T03:29:57.729Z,8.20
2024-03-27T03:32:25.096Z,9.70
2024-03-27T03:34:52.997Z,12.60
2024-03-27T03:37:20.294Z,10.20
2024-03-27T03:39:47.605Z,9.80
2024-03-27T03:42:14.956Z,11.40
2024-03-27T03:44:42.310Z,8.80
2024-03-27T03:47:09.563Z,10.00
2024-03-27T03:49:37.428Z,12.00
2024-03-27T03:52:04.909Z,9.70
2024-03-27T03:54:32.217Z,9.60
2024-03-27T03:57:00.077Z,8.80
2024-03-27T03:59:27.428Z,11.40
2024-03-27T04:01:54.996Z,10.20
2024-03-27T04:04:22.362Z,9.90
2024-03-27T04:06:49.723Z,12.40
2024-03-27T04:09:18.505Z,11.00
2024-03-27T04:11:46.267Z,15.20
2024-03-27T04:14:13.720Z,14.30
2024-03-27T04:16:41.080Z,16.00
2024-03-27T04:19:08.435Z,15.80
2024-03-27T04:21:35.785Z,14.10
2024-03-27T04:24:03.671Z,17.30
2024-03-27T04:26:31.164Z,15.90
2024-03-27T04:28:59.149Z,11.90
2024-03-27T04:31:26.519Z,11.00
2024-03-27T04:33:53.867Z,10.60
2024-03-27T04:36:21.665Z,10.50
2024-03-27T04:38:49.942Z,8.50
2024-03-27T04:41:17.301Z,10.50
2024-03-27T04:43:44.600Z,10.40
2024-03-27T04:46:11.944Z,9.10
2024-03-27T04:48:39.286Z,9.00
2024-03-27T04:51:06.607Z,34.10
2024-03-27T04:53:33.893Z,25.00
2024-03-27T04:56:01.207Z,21.00
2024-03-27T04:58:28.577Z,10.60
2024-03-27T05:00:55.889Z,7.80
2024-03-27T05:03:23.394Z,7.60
2024-03-27T05:05:50.777Z,6.20
2024-03-27T05:08:18.223Z,26.20
2024-03-27T05:10:45.592Z,7.80
2024-03-27T05:13:12.939Z,7.80
2024-03-27T05:15:40.974Z,8.70
2024-03-27T05:18:09.058Z,7.50
2024-03-27T05:20:36.336Z,5.90
2024-03-27T05:23:03.881Z,8.70
2024-03-27T05:25:31.234Z,7.80
2024-03-27T05:27:59.848Z,7.60
2024-03-27T05:30:28.008Z,10.60
2024-03-27T05:32:55.361Z,8.30
2024-03-27T05:35:22.662Z,9.10
2024-03-27T05:37:49.938Z,8.10
2024-03-27T05:40:17.402Z,6.60
2024-03-27T05:42:46.221Z,7.10
2024-03-27T05:45:14.108Z,6.80
2024-03-27T05:47:44.439Z,7.10
2024-03-27T05:50:11.731Z,9.00
2024-03-27T05:52:39.048Z,7.50
2024-03-27T05:55:06.911Z,5.80
2024-03-27T05:57:34.293Z,5.80
2024-03-27T06:00:01.650Z,6.20
2024-03-27T06:02:29.242Z,7.20
2024-03-27T06:04:56.647Z,6.90
2024-03-27T06:07:24.011Z,6.10
2024-03-27T06:09:51.558Z,7.60
2024-03-27T06:12:18.968Z,9.20
2024-03-27T06:14:46.827Z,5.40
2024-03-27T06:17:14.837Z,4.90
2024-03-27T06:19:42.195Z,5.70
2024-03-27T06:22:09.488Z,5.60
2024-03-27T06:24:36.980Z,7.50
2024-03-27T06:27:04.366Z,6.90
2024-03-27T06:29:31.905Z,6.80
2024-03-27T06:31:59.273Z,6.90
2024-03-27T06:34:26.746Z,7.20
2024-03-27T06:36:54.343Z,5.20
2024-03-27T06:39:23.090Z,4.60
2024-03-27T06:41:50.418Z,6.40
2024-03-27T06:44:17.923Z,5.40
2024-03-27T06:46:46.225Z,12.40
2024-03-27T06:49:34.753Z,8.70
2024-03-27T06:52:02.703Z,6.00
2024-03-27T06:54:31.514Z,8.40
2024-03-27T06:57:02.068Z,5.70
2024-03-27T06:59:29.690Z,8.20
2024-03-27T07:01:57.330Z,4.70
2024-03-27T07:04:27.385Z,4.60
2024-03-27T07:06:55.237Z,4.20
2024-03-27T07:09:22.904Z,4.20
2024-03-27T07:11:51.118Z,4.60
2024-03-27T07:14:19.019Z,4.90
2024-03-27T07:16:46.511Z,3.60
2024-03-27T07:19:14.404Z,4.40
2024-03-27T07:21:45.240Z,4.80
2024-03-27T07:24:12.907Z,5.20
2024-03-27T07:26:40.329Z,5.10
2024-03-27T07:29:08.613Z,5.00
2024-03-27T07:31:36.045Z,4.60
2024-03-27T07:34:04.683Z,4.00
2024-03-27T07:36:35.085Z,5.00
2024-03-27T07:39:03.092Z,5.00
2024-03-27T07:41:35.796Z,4.20
2024-03-27T07:44:06.699Z,4.40
2024-03-27T07:46:34.223Z,3.90
2024-03-27T07:49:04.531Z,5.00
2024-03-27T07:51:32.201Z,5.40
2024-03-27T07:53:59.593Z,6.00
2024-03-27T07:56:27.497Z,6.10
2024-03-27T07:58:54.950Z,5.60
2024-03-27T08:01:22.924Z,6.90
2024-03-27T08:03:51.253Z,5.50
2024-03-27T08:06:19.373Z,5.20
2024-03-27T08:08:46.959Z,6.60
2024-03-27T08:11:14.620Z,4.80
2024-03-27T08:13:43.392Z,6.40
2024-03-27T08:16:11.578Z,6.00
2024-03-27T08:18:46.826Z,4.80
2024-03-27T08:21:14.540Z,4.90
2024-03-27T08:23:41.940Z,5.30
2024-03-27T08:26:10.498Z,5.40
2024-03-27T08:28:41.830Z,4.90
2024-03-27T08:31:09.493Z,4.70
2024-03-27T08:33:37.045Z,4.00
2024-03-27T08:36:06.153Z,5.10
2024-03-27T08:38:34.654Z,7.50
2024-03-27T08:41:02.270Z,6.20
2024-03-27T08:43:29.808Z,4.50
2024-03-27T08:45:57.270Z,13.50
2024-03-27T08:48:25.523Z,5.50
2024-03-27T08:50:53.567Z,5.10
2024-03-27T08:53:21.056Z,7.00
2024-03-27T08:55:49.367Z,4.70
2024-03-27T08:58:18.178Z,5.70
2024-03-27T09:00:46.818Z,5.40
2024-03-27T09:03:17.540Z,6.10
2024-03-27T09:05:45.482Z,5.10
2024-03-27T09:08:13.392Z,4.50
2024-03-27T09:10:45.529Z,5.60
2024-03-27T09:13:13.156Z,4.10
2024-03-27T09:15:40.800Z,5.40
2024-03-27T09:18:08.575Z,5.40
2024-03-27T09:20:39.263Z,4.90
2024-03-27T09:23:07.359Z,3.60
2024-03-27T09:25:35.850Z,4.60
2024-03-27T09:28:03.777Z,4.80
2024-03-27T09:30:31.177Z,6.50
2024-03-27T09:32:58.733Z,4.10
2024-03-27T09:35:26.312Z,4.00
2024-03-27T09:37:59.202Z,3.30
2024-03-27T09:40:26.984Z,6.10
2024-03-27T09:42:54.409Z,5.40
2024-03-27T09:45:21.944Z,3.90
2024-03-27T09:47:52.716Z,4.80
2024-03-27T09:50:20.460Z,6.50
2024-03-27T09:52:47.866Z,4.30
2024-03-27T09:55:15.573Z,8.00
2024-03-27T09:57:43.937Z,5.10
2024-03-27T10:00:12.097Z,4.00
2024-03-27T10:02:39.608Z,5.20
2024-03-27T10:05:10.558Z,5.80
2024-03-27T10:07:38.019Z,4.10
2024-03-27T10:10:06.694Z,4.40
2024-03-27T10:12:34.837Z,4.40
2024-03-27T10:15:06.338Z,4.00
2024-03-27T10:17:34.071Z,4.10
2024-03-27T10:20:02.174Z,3.70
2024-03-27T10:22:33.090Z,4.30
2024-03-27T10:25:03.147Z,6.10
2024-03-27T10:27:32.188Z,5.00
2024-03-27T10:30:00.260Z,4.30
2024-03-27T10:32:28.045Z,2.90
2024-03-27T10:35:05.627Z,3.50
2024-03-27T10:37:34.751Z,8.00
2024-03-27T10:40:03.576Z,5.50
2024-03-27T10:42:31.081Z,3.30
2024-03-27T10:44:59.641Z,2.90
2024-03-27T10:47:36.220Z,6.00
2024-03-27T10:50:05.782Z,3.40
2024-03-27T10:52:34.181Z,3.10
2024-03-27T10:55:02.328Z,3.30
2024-03-27T10:57:29.773Z,3.90
2024-03-27T10:59:57.690Z,3.70
2024-03-27T11:02:25.829Z,6.20
2024-03-27T11:04:57.706Z,3.70
2024-03-27T11:07:25.203Z,6.80
2024-03-27T11:09:54.887Z,3.30
2024-03-27T11:12:24.623Z,4.60
2024-03-27T11:14:52.332Z,3.50
2024-03-27T11:17:26.886Z,3.20
2024-03-27T11:19:57.577Z,3.30
2024-03-27T11:22:25.573Z,2.90
2024-03-27T11:24:53.137Z,2.90
2024-03-27T11:27:30.401Z,2.50
2024-03-27T11:29:58.695Z,2.60
2024-03-27T11:32:36.466Z,2.70
2024-03-27T11:35:05.200Z,2.70
2024-03-27T11:37:33.044Z,3.20
2024-03-27T11:40:00.741Z,4.40
2024-03-27T11:42:31.463Z,3.20
2024-03-27T11:44:58.898Z,2.40
2024-03-27T11:47:26.319Z,2.30
2024-03-27T11:49:54.529Z,2.90
2024-03-27T11:52:22.379Z,2.70
2024-03-27T11:54:57.890Z,2.20
2024-03-27T11:57:25.445Z,2.70
2024-03-27T11:59:52.904Z,6.00
2024-03-27T12:02:20.690Z,2.90
2024-03-27T12:04:48.973Z,3.00
2024-03-27T12:07:16.883Z,4.00
2024-03-27T12:09:44.890Z,5.40
2024-03-27T12:12:18.562Z,3.90
2024-03-27T12:14:46.085Z,2.10
2024-03-27T12:17:16.837Z,2.30
2024-03-27T12:19:57.169Z,3.30
2024-03-27T12:22:27.379Z,2.60
2024-03-27T12:24:55.015Z,3.10
2024-03-27T12:27:24.094Z,3.70
2024-03-27T12:29:51.722Z,2.30
2024-03-27T12:32:20.439Z,3.50
2024-03-27T12:34:51.343Z,3.40
2024-03-27T12:37:19.209Z,2.40
2024-03-27T12:39:47.716Z,2.60
2024-03-27T12:42:18.337Z,2.80
2024-03-27T12:44:46.143Z,3.10
2024-03-27T12:47:13.595Z,3.30
2024-03-27T12:49:42.106Z,2.30
2024-03-27T12:52:10.927Z,2.40
2024-03-27T12:54:38.512Z,2.70
2024-03-27T12:57:06.257Z,2.10
2024-03-27T12:59:33.724Z,2.80
2024-03-27T13:02:01.344Z,2.60
2024-03-27T13:04:34.138Z,2.40
2024-03-27T13:07:02.155Z,2.90
2024-03-27T13:09:29.803Z,4.10
2024-03-27T13:11:57.332Z,3.00
2024-03-27T13:14:24.902Z,3.10
2024-03-27T13:16:55.524Z,3.80
2024-03-27T13:19:25.954Z,5.00
2024-03-27T13:21:56.786Z,2.80
2024-03-27T13:24:27.845Z,3.10
2024-03-27T13:26:56.134Z,2.40
2024-03-27T13:29:23.670Z,2.30
2024-03-27T13:32:00.295Z,3.10
2024-03-27T13:34:37.722Z,4.60
2024-03-27T13:37:06.539Z,3.60
2024-03-27T13:39:34.169Z,1.90
2024-03-27T13:42:04.531Z,4.50
2024-03-27T13:44:32.038Z,2.80
2024-03-27T13:46:59.703Z,3.90
2024-03-27T13:49:33.752Z,5.40
2024-03-27T13:52:02.088Z,3.20
2024-03-27T13:54:35.628Z,3.00
2024-03-27T13:57:06.334Z,3.20
2024-03-27T13:59:34.439Z,7.20
2024-03-27T14:02:04.948Z,3.90
2024-03-27T14:04:34.332Z,2.50
2024-03-27T14:07:03.838Z,2.50
2024-03-27T14:09:32.097Z,2.80
2024-03-27T14:11:59.962Z,2.90
2024-03-27T14:14:30.768Z,10.80
2024-03-27T14:16:58.644Z,4.70
2024-03-27T14:19:26.778Z,4.80
2024-03-27T14:21:54.317Z,6.20
2024-03-27T14:24:22.467Z,3.80
2024-03-27T14:26:50.357Z,4.10
2024-03-27T14:29:27.030Z,2.90
2024-03-27T14:31:54.847Z,4.20
2024-03-27T14:34:23.035Z,5.10
2024-03-27T14:36:50.543Z,4.40
2024-03-27T14:39:21.063Z,5.70
2024-03-27T14:41:49.834Z,4.80
2024-03-27T14:44:20.888Z,3.40
2024-03-27T14:46:48.635Z,4.80
2024-03-27T14:49:16.449Z,3.30
2024-03-27T14:51:45.348Z,4.70
2024-03-27T14:54:13.067Z,7.00
2024-03-27T14:56:41.256Z,3.50
2024-03-27T14:59:09.912Z,3.90
2024-03-27T15:01:38.500Z,3.50
2024-03-27T15:04:06.142Z,4.20
2024-03-27T15:06:33.598Z,4.50
2024-03-27T15:09:03.619Z,7.40
2024-03-27T15:11:31.222Z,4.40
2024-03-27T15:13:58.729Z,3.60
2024-03-27T15:16:26.797Z,3.60
2024-03-27T15:18:54.326Z,4.30
2024-03-27T15:21:23.772Z,5.40
2024-03-27T15:23:51.299Z,3.90
2024-03-27T15:26:18.883Z,8.30
2024-03-27T15:28:49.463Z,5.30
2024-03-27T15:31:19.744Z,5.90
2024-03-27T15:33:49.063Z,5.80
2024-03-27T15:36:16.760Z,5.60
2024-03-27T15:38:44.462Z,11.90
2024-03-27T15:41:12.277Z,4.80
2024-03-27T15:43:39.913Z,8.20
2024-03-27T15:46:07.325Z,3.20
2024-03-27T15:48:34.904Z,5.60
2024-03-27T15:51:02.542Z,4.20
2024-03-27T15:53:30.223Z,6.10
2024-03-27T15:55:58.082Z,7.40
2024-03-27T15:58:28.291Z,7.70
2024-03-27T16:00:55.834Z,5.80
2024-03-27T16:03:24.416Z,7.80
2024-03-27T16:05:55.531Z,5.40
2024-03-27T16:08:23.270Z,5.70
2024-03-27T16:10:53.439Z,4.70
2024-03-27T16:13:23.677Z,4.50
2024-03-27T16:15:51.128Z,4.90
2024-03-27T16:18:18.708Z,5.30
2024-03-27T16:20:51.239Z,5.70
2024-03-27T16:23:19.347Z,7.10
2024-03-27T16:25:46.868Z,3.70
2024-03-27T16:28:14.982Z,4.50
2024-03-27T16:30:44.050Z,5.20
2024-03-27T16:33:11.532Z,4.60
2024-03-27T16:35:39.028Z,5.20
2024-03-27T16:38:06.465Z,7.20
2024-03-27T16:40:33.982Z,7.90
2024-03-27T16:43:01.644Z,3.50
2024-03-27T16:45:30.445Z,4.10
2024-03-27T16:47:57.828Z,3.80
2024-03-27T16:50:25.326Z,5.20
2024-03-27T16:52:53.532Z,5.10
2024-03-27T16:55:21.628Z,4.10
2024-03-27T16:57:49.124Z,7.70
2024-03-27T17:00:19.947Z,7.20
2024-03-27T17:02:47.324Z,4.80
2024-03-27T17:05:14.851Z,4.80
2024-03-27T17:07:42.320Z,4.50
2024-03-27T17:10:11.943Z,4.50
2024-03-27T17:12:39.328Z,4.50
2024-03-27T17:15:06.917Z,4.60
2024-03-27T17:17:34.308Z,11.30
2024-03-27T17:20:01.937Z,4.90
2024-03-27T17:22:29.452Z,3.40
2024-03-27T17:24:57.117Z,3.60
2024-03-27T17:27:24.619Z,4.20
2024-03-27T17:29:52.104Z,3.70
2024-03-27T17:32:19.745Z,5.70
2024-03-27T17:34:47.185Z,3.40
2024-03-27T17:37:14.661Z,3.50
2024-03-27T17:39:42.523Z,4.20
2024-03-27T17:42:10.071Z,6.90
2024-03-27T17:44:38.501Z,3.30
2024-03-27T17:47:06.070Z,5.00
2024-03-27T17:49:33.478Z,11.50
2024-03-27T17:52:03.189Z,4.50
2024-03-27T17:54:34.735Z,4.90
2024-03-27T17:57:03.669Z,4.50
2024-03-27T17:59:31.164Z,5.80
2024-03-27T18:01:58.724Z,7.50
2024-03-27T18:04:26.722Z,4.30
2024-03-27T18:06:55.615Z,2.90
2024-03-27T18:09:23.073Z,3.80
2024-03-27T18:11:50.570Z,5.90
2024-03-27T18:14:19.523Z,3.20
2024-03-27T18:16:46.985Z,4.80
2024-03-27T18:19:14.434Z,3.60
2024-03-27T18:21:41.808Z,4.40
2024-03-27T18:24:10.616Z,4.90
2024-03-27T18:26:38.181Z,4.40
2024-03-27T18:29:05.631Z,3.00
2024-03-27T18:31:33.606Z,3.10
2024-03-27T18:34:02.920Z,3.60
2024-03-27T18:36:30.324Z,5.10
2024-03-27T18:38:57.881Z,5.70
2024-03-27T18:41:25.597Z,4.30
2024-03-27T18:43:53.056Z,3.30
2024-03-27T18:46:20.778Z,4.40
2024-03-27T18:48:50.131Z,4.90
2024-03-27T18:51:17.656Z,4.60
2024-03-27T18:53:45.271Z,2.80
2024-03-27T18:56:15.369Z,4.30
2024-03-27T18:58:45.833Z,5.10
2024-03-27T19:01:14.912Z,3.90
2024-03-27T19:03:43.723Z,3.90
2024-03-27T19:06:12.792Z,3.10
2024-03-27T19:08:42.340Z,5.00
2024-03-27T19:11:19.674Z,4.00
2024-03-27T19:13:55.323Z,5.40
2024-03-27T19:16:26.940Z,2.40
2024-03-27T19:19:03.039Z,3.50
2024-03-27T19:21:31.519Z,3.40
2024-03-27T19:24:00.482Z,3.70
2024-03-27T19:26:29.302Z,4.80
2024-03-27T19:28:58.998Z,4.40
2024-03-27T19:31:26.387Z,4.70
2024-03-27T19:33:53.761Z,4.00
2024-03-27T19:36:23.405Z,4.00
2024-03-27T19:38:50.911Z,4.20
2024-03-27T19:41:18.358Z,4.70
2024-03-27T19:43:45.802Z,4.90
2024-03-27T19:46:13.211Z,5.00
2024-03-27T19:48:41.907Z,6.00
2024-03-27T19:51:09.409Z,7.00
2024-03-27T19:53:39.019Z,3.00
2024-03-27T19:56:08.651Z,4.20
2024-03-27T19:58:36.512Z,6.10
2024-03-27T20:01:08.271Z,3.20
2024-03-27T20:03:37.062Z,3.80
2024-03-27T20:06:04.678Z,3.20
2024-03-27T20:08:32.166Z,3.40
2024-03-27T20:11:04.347Z,6.00
2024-03-27T20:13:34.953Z,4.40
2024-03-27T20:16:04.744Z,13.90
2024-03-27T20:18:32.296Z,2.90
2024-03-27T20:21:04.583Z,5.60
2024-03-27T20:23:32.034Z,3.60
2024-03-27T20:26:00.231Z,3.20
2024-03-27T20:28:27.907Z,7.60
2024-03-27T20:30:55.432Z,7.00
2024-03-27T20:33:22.788Z,4.40
2024-03-27T20:35:51.112Z,3.50
2024-03-27T20:38:18.738Z,3.40
2024-03-27T20:40:50.996Z,3.20
2024-03-27T20:43:18.365Z,4.90
2024-03-27T20:45:45.862Z,6.00
2024-03-27T20:48:13.285Z,4.50
2024-03-27T20:50:41.379Z,4.20
2024-03-27T20:53:09.688Z,3.10
2024-03-27T20:55:37.274Z,6.40
2024-03-27T20:58:04.828Z,4.30
2024-03-27T21:00:32.219Z,3.70
2024-03-27T21:03:04.294Z,4.20
2024-03-27T21:05:31.877Z,3.50
2024-03-27T21:07:59.326Z,2.50
2024-03-27T21:10:27.150Z,3.60
2024-03-27T21:12:56.649Z,4.20
2024-03-27T21:15:24.051Z,4.30
2024-03-27T21:17:51.503Z,4.30
2024-03-27T21:20:19.023Z,5.60
2024-03-27T21:22:46.387Z,4.50
2024-03-27T21:25:13.962Z,5.30
2024-03-27T21:27:41.338Z,3.50
2024-03-27T21:30:08.931Z,3.70
2024-03-27T21:32:36.447Z,5.00
2024-03-27T21:35:04.013Z,3.30
2024-03-27T21:37:31.376Z,11.20
2024-03-27T21:39:58.675Z,4.60
2024-03-27T21:42:26.009Z,2.10
2024-03-27T21:44:53.353Z,5.60
2024-03-27T21:47:21.232Z,3.70
2024-03-27T21:49:48.697Z,6.40
2024-03-27T21:52:16.048Z,4.90
2024-03-27T21:54:43.420Z,4.20
2024-03-27T21:57:10.866Z,3.80
2024-03-27T21:59:38.205Z,3.20
2024-03-27T22:02:05.633Z,3.70
2024-03-27T22:04:33.052Z,3.10
2024-03-27T22:07:00.533Z,5.00
2024-03-27T22:09:27.861Z,2.60
2024-03-27T22:11:55.254Z,3.40
2024-03-27T22:14:22.550Z,5.60
2024-03-27T22:16:49.936Z,2.70
2024-03-27T22:19:18.359Z,3.40
2024-03-27T22:21:45.637Z,1.80
2024-03-27T22:24:13.002Z,3.10
2024-03-27T22:26:40.403Z,4.30
2024-03-27T22:29:07.793Z,4.00
2024-03-27T22:31:35.224Z,2.70
2024-03-27T22:34:02.492Z,3.80
2024-03-27T22:36:29.914Z,2.90
2024-03-27T22:38:57.604Z,4.00
2024-03-27T22:41:25.054Z,3.40
2024-03-27T22:43:52.367Z,2.20
2024-03-27T22:46:19.800Z,3.20
2024-03-27T22:48:56.754Z,3.50
2024-03-27T22:51:27.674Z,3.80
2024-03-27T22:53:54.971Z,2.00
2024-03-27T22:56:22.305Z,3.60
2024-03-27T22:58:49.739Z,4.10
2024-03-27T23:01:17.847Z,2.70
2024-03-27T23:03:45.237Z,5.00
2024-03-27T23:06:13.517Z,3.60
2024-03-27T23:08:41.046Z,1.90
2024-03-27T23:11:17.112Z,1.40
2024-03-27T23:13:44.375Z,3.60
2024-03-27T23:16:11.754Z,3.50
2024-03-27T23:18:39.872Z,3.10
2024-03-27T23:21:07.178Z,4.10
2024-03-27T23:23:34.489Z,3.90
2024-03-27T23:26:01.863Z,2.70
2024-03-27T23:28:29.265Z,2.60
2024-03-27T23:30:56.964Z,2.80
2024-03-27T23:33:25.661Z,4.10
2024-03-27T23:35:52.977Z,4.70
2024-03-27T23:38:20.238Z,4.00
2024-03-27T23:40:47.591Z,4.80
2024-03-27T23:43:14.971Z,5.50
2024-03-27T23:45:42.238Z,2.40
2024-03-27T23:48:10.692Z,5.20
2024-03-27T23:50:38.178Z,3.60
2024-03-27T23:53:05.468Z,4.30
2024-03-27T23:55:32.875Z,5.00
2024-03-27T23:58:00.215Z,4.50
